Time;durP1;ratioP1;P1;durP2;ratioP2;P2;SDS_P1;SDS_P2;PMS_P1;PMS_P2;Temp;Humidity;BMP_temperature;BMP_pressure;BME280_temperature;BME280_humidity;BME280_pressure;Samples;Min_cycle;Max_cycle;Signal;HPM_P1;HPM_P2
2021/07/19 00:01:58;;;;;;;13.70;9.83;;;;;;;23.13;76.89;100099.27;1744664;82;20948;-71
2021/07/19 00:04:25;;;;;;;11.48;10.30;;;;;;;23.12;76.99;100106.98;1744794;82;21911;-71
2021/07/19 00:06:52;;;;;;;12.75;9.20;;;;;;;23.10;76.91;100102.33;1744514;82;20932;-71
2021/07/19 00:09:19;;;;;;;11.18;9.33;;;;;;;23.09;76.85;100107.34;1744918;80;20905;-71
2021/07/19 00:11:48;;;;;;;17.25;9.48;;;;;;;23.08;76.90;100107.55;1744623;80;21454;-69
2021/07/19 00:14:16;;;;;;;11.95;9.98;;;;;;;23.06;77.00;100106.90;1744649;80;20968;-69
2021/07/19 00:16:45;;;;;;;14.18;8.93;;;;;;;23.04;77.10;100104.41;1744564;81;21039;-69
2021/07/19 00:19:13;;;;;;;14.25;9.43;;;;;;;23.01;76.95;100110.14;1744630;81;21027;-69
2021/07/19 00:21:42;;;;;;;12.33;9.20;;;;;;;22.97;76.80;100105.63;1744635;81;20884;-69
2021/07/19 00:24:09;;;;;;;17.05;9.95;;;;;;;22.93;76.77;100097.64;1744616;81;20941;-69
2021/07/19 00:26:37;;;;;;;18.77;9.80;;;;;;;22.92;76.96;100115.20;1744679;81;21450;-70
2021/07/19 00:29:06;;;;;;;13.22;9.40;;;;;;;22.89;77.08;100116.92;1744638;81;20932;-68
2021/07/19 00:31:34;;;;;;;10.53;9.18;;;;;;;22.86;77.20;100120.80;1744853;81;20874;-69
2021/07/19 00:34:01;;;;;;;18.42;10.58;;;;;;;22.84;77.12;100110.79;1746219;81;20999;-69
2021/07/19 00:36:30;;;;;;;21.68;9.93;;;;;;;22.83;77.13;100106.95;1757833;81;21474;-70
2021/07/19 00:38:59;;;;;;;16.70;10.00;;;;;;;22.82;77.19;100116.00;1757833;81;20986;-69
2021/07/19 00:41:26;;;;;;;15.23;9.73;;;;;;;22.81;77.26;100111.66;1757875;80;21528;-70
2021/07/19 00:43:55;;;;;;;9.98;8.33;;;;;;;22.81;77.20;100111.66;1757890;80;20924;-70
2021/07/19 00:46:21;;;;;;;11.70;9.98;;;;;;;22.80;77.12;100120.70;1757903;81;20931;-69
2021/07/19 00:48:49;;;;;;;9.58;8.63;;;;;;;22.78;77.19;100123.55;1757918;81;20940;-70
2021/07/19 00:51:17;;;;;;;15.18;9.48;;;;;;;22.76;77.19;100130.41;1695747;83;21003;-69
2021/07/19 00:53:47;;;;;;;11.60;8.58;;;;;;;22.68;77.50;100127.84;1719284;82;21556;-69
2021/07/19 00:56:14;;;;;;;17.30;10.00;;;;;;;22.65;77.75;100124.18;1722032;83;20892;-69
2021/07/19 00:58:42;;;;;;;10.40;8.80;;;;;;;22.65;77.72;100119.34;1703722;84;20877;-70
2021/07/19 01:01:09;;;;;;;12.30;8.90;;;;;;;22.64;77.65;100117.19;1679718;84;20976;-69
2021/07/19 01:03:36;;;;;;;11.48;10.28;;;;;;;22.66;77.65;100121.84;1703707;84;20933;-69
2021/07/19 01:06:03;;;;;;;16.73;9.85;;;;;;;22.65;77.80;100122.02;1703838;84;21565;-70
2021/07/19 01:08:32;;;;;;;11.05;9.50;;;;;;;22.61;77.78;100120.23;1703654;84;21383;-69
2021/07/19 01:11:00;;;;;;;10.28;9.20;;;;;;;22.61;77.88;100126.92;1704008;84;20933;-69
2021/07/19 01:13:27;;;;;;;11.28;9.08;;;;;;;22.61;77.68;100122.06;1703730;84;20949;-69
2021/07/19 01:15:55;;;;;;;10.70;9.28;;;;;;;22.61;77.57;100116.23;1704245;84;21084;-70
2021/07/19 01:18:22;;;;;;;16.27;9.30;;;;;;;22.60;77.41;100120.41;1703636;84;21130;-70
2021/07/19 01:21:06;;;;;;;10.00;9.00;;;;;;;22.60;77.41;100131.92;1703591;84;21018;-69
2021/07/19 01:24:25;;;;;;;11.55;9.48;;;;;;;22.59;77.43;100129.42;1703933;84;21493;-71
2021/07/19 01:27:13;;;;;;;14.10;9.65;;;;;;;22.56;77.41;100131.96;1673019;84;20937;-71
2021/07/19 01:29:40;;;;;;;15.28;10.10;;;;;;;22.55;77.60;100133.81;1703683;84;20910;-71
2021/07/19 01:32:07;;;;;;;20.02;10.20;;;;;;;22.54;77.61;100128.64;1703904;84;21447;-71
2021/07/19 01:34:35;;;;;;;11.15;10.05;;;;;;;22.52;77.79;100138.20;1702680;84;20937;-70
2021/07/19 01:37:03;;;;;;;12.28;9.55;;;;;;;22.47;77.65;100136.55;1680741;84;20861;-71
2021/07/19 01:39:38;;;;;;;12.40;9.55;;;;;;;22.39;77.92;100136.65;1707237;84;20940;-69
2021/07/19 01:42:06;;;;;;;12.73;9.88;;;;;;;22.37;78.29;100140.48;1708500;84;20984;-71
2021/07/19 01:44:33;;;;;;;12.58;10.75;;;;;;;22.35;78.50;100137.50;1708532;83;21821;-70
2021/07/19 01:47:00;;;;;;;15.53;10.38;;;;;;;22.35;78.47;100130.00;1708389;83;20972;-71
2021/07/19 01:49:28;;;;;;;15.15;10.25;;;;;;;22.37;78.35;100124.45;1680933;84;21470;-70
2021/07/19 01:51:55;;;;;;;12.88;10.03;;;;;;;22.38;78.29;100136.82;1708444;83;21023;-74
2021/07/19 01:54:23;;;;;;;11.90;9.78;;;;;;;22.38;78.28;100136.31;1708448;83;20909;-72
2021/07/19 01:56:53;;;;;;;16.02;10.40;;;;;;;22.38;78.12;100136.82;1708760;83;21140;-71
2021/07/19 01:59:21;;;;;;;11.70;9.03;;;;;;;22.39;78.17;100147.82;1680971;84;20866;-71
2021/07/19 02:01:50;;;;;;;15.78;9.20;;;;;;;22.37;78.23;100140.48;1704555;84;20949;-71
2021/07/19 02:04:18;;;;;;;10.55;8.03;;;;;;;22.35;78.27;100138.84;1708490;83;20964;-72
2021/07/19 02:06:46;;;;;;;15.53;9.88;;;;;;;22.35;78.20;100142.03;1708707;84;21529;-72
2021/07/19 02:09:13;;;;;;;10.38;8.73;;;;;;;22.35;78.26;100152.71;1708487;83;21551;-71
2021/07/19 02:12:00;;;;;;;12.65;9.83;;;;;;;22.32;78.27;100146.38;1672048;84;21008;-71
2021/07/19 02:14:28;;;;;;;13.75;10.30;;;;;;;22.31;78.31;100144.73;1668530;84;21503;-71
2021/07/19 02:16:57;;;;;;;10.90;9.58;;;;;;;22.30;78.44;100147.91;1744107;82;21429;-70
2021/07/19 02:19:24;;;;;;;15.15;10.40;;;;;;;22.28;78.48;100147.26;1744600;82;20900;-71
2021/07/19 02:21:52;;;;;;;11.08;10.03;;;;;;;22.28;78.50;100141.92;1744727;82;21155;-72
2021/07/19 02:24:26;;;;;;;12.60;9.80;;;;;;;22.28;78.44;100147.77;1743932;82;20857;-70
2021/07/19 02:27:14;;;;;;;18.20;10.30;;;;;;;22.28;78.36;100151.27;1743492;82;20868;-70
2021/07/19 02:29:44;;;;;;;16.48;9.78;;;;;;;22.29;78.32;100143.56;1744442;82;20912;-71
2021/07/19 02:32:15;;;;;;;13.40;8.40;;;;;;;22.28;78.42;100145.92;1744805;82;20900;-70
2021/07/19 02:34:43;;;;;;;11.08;10.00;;;;;;;22.27;78.41;100148.25;1744376;82;21139;-70
2021/07/19 02:37:10;;;;;;;14.80;9.88;;;;;;;22.28;78.48;100148.59;1719802;82;21474;-71
2021/07/19 02:39:38;;;;;;;11.28;8.83;;;;;;;22.30;78.27;100152.44;1676611;85;20997;-71
2021/07/19 02:42:08;;;;;;;11.63;9.95;;;;;;;22.31;78.27;100152.23;1744541;82;20909;-71
2021/07/19 02:44:36;;;;;;;13.95;9.35;;;;;;;22.33;78.19;100155.55;1744507;82;20987;-71
2021/07/19 02:49:52;;;;;;;10.82;9.03;;;;;;;22.41;78.18;100155.15;1797800;79;22637;-70
2021/07/19 02:52:21;;;;;;;10.82;9.85;;;;;;;22.37;78.24;100162.72;1696057;84;21427;-70
2021/07/19 02:54:50;;;;;;;15.63;9.88;;;;;;;22.39;78.12;100159.84;1695779;84;21207;-71
2021/07/19 02:57:18;;;;;;;10.75;9.25;;;;;;;22.41;78.27;100160.50;1695837;83;20939;-71
2021/07/19 02:59:45;;;;;;;12.65;9.43;;;;;;;22.42;78.17;100152.82;1695759;83;20931;-70
2021/07/19 03:02:12;;;;;;;10.55;9.45;;;;;;;22.44;78.24;100154.81;1695975;84;21500;-70
2021/07/19 03:04:40;;;;;;;12.33;10.32;;;;;;;22.45;78.25;100161.28;1695899;83;20943;-70
2021/07/19 03:07:08;;;;;;;14.73;10.08;;;;;;;22.45;78.48;100159.13;1696352;82;21801;-71
2021/07/19 03:09:39;;;;;;;17.10;12.23;;;;;;;22.48;78.56;100164.13;1724701;82;20891;-77
2021/07/19 03:12:07;;;;;;;18.30;12.35;;;;;;;22.51;78.67;100165.91;1725190;82;20915;-76
2021/07/19 03:14:34;;;;;;;12.43;10.48;;;;;;;22.56;78.59;100164.03;1696013;83;20939;-76
2021/07/19 03:17:03;;;;;;;12.90;10.40;;;;;;;22.62;78.62;100163.83;1725048;82;20939;-75
2021/07/19 03:19:30;;;;;;;13.05;11.78;;;;;;;22.65;78.68;100159.44;1696453;83;22175;-80
2021/07/19 03:21:59;;;;;;;13.45;9.83;;;;;;;22.70;78.66;100167.25;1724995;82;20891;-80
2021/07/19 03:24:27;;;;;;;13.30;10.50;;;;;;;22.77;78.61;100170.03;1709545;84;20873;-79
2021/07/19 03:26:55;;;;;;;13.08;11.38;;;;;;;22.84;78.61;100170.13;1725027;82;20879;-79
2021/07/19 03:29:22;;;;;;;20.35;12.43;;;;;;;22.89;78.51;100158.37;1724967;82;20864;-80
2021/07/19 03:31:57;;;;;;;17.50;12.53;;;;;;;22.97;78.56;100172.99;1722126;82;21125;-79
2021/07/19 03:34:24;;;;;;;19.62;14.05;;;;;;;23.06;78.18;100165.23;1724772;82;20888;-80
2021/07/19 03:36:53;;;;;;;14.65;12.98;;;;;;;23.13;78.01;100165.32;1724992;83;21445;-80
2021/07/19 03:39:21;;;;;;;14.45;12.95;;;;;;;23.19;77.26;100172.61;1696231;83;20987;-79
2021/07/19 03:41:59;;;;;;;16.27;13.70;;;;;;;23.22;77.55;100172.23;1724692;82;20891;-78
2021/07/19 03:44:27;;;;;;;19.17;13.40;;;;;;;23.31;77.37;100175.13;1724913;82;21453;-79
2021/07/19 03:46:54;;;;;;;16.57;13.32;;;;;;;23.41;77.28;100172.18;1724929;81;20919;-78
2021/07/19 03:49:23;;;;;;;15.03;13.53;;;;;;;23.48;77.10;100176.27;1719615;82;21403;-79
2021/07/19 03:51:53;;;;;;;17.92;13.45;;;;;;;23.56;76.87;100173.47;1754067;80;20900;-76
2021/07/19 03:54:20;;;;;;;18.32;14.50;;;;;;;23.66;76.58;100171.85;1754004;81;20928;-77
2021/07/19 03:56:48;;;;;;;16.87;13.78;;;;;;;23.74;76.31;100169.04;1753339;81;21104;-77
2021/07/19 03:59:19;;;;;;;18.17;13.25;;;;;;;23.81;76.10;100175.32;1753434;80;20857;-78
2021/07/19 04:01:48;;;;;;;16.37;14.67;;;;;;;23.91;75.82;100174.52;1753123;81;21010;-79
2021/07/19 04:04:30;;;;;;;15.83;13.45;;;;;;;24.02;75.62;100169.69;1752903;80;20936;-78
2021/07/19 04:06:46;;;;;;;15.55;13.95;;;;;;;24.12;75.16;100181.75;1749741;80;20928;-79
2021/07/19 04:09:14;;;;;;;17.95;14.83;;;;;;;24.22;74.76;100180.08;1753149;81;22175;-78
2021/07/19 04:11:42;;;;;;;17.48;13.60;;;;;;;24.32;74.54;100178.39;1752609;80;20924;-78
2021/07/19 04:14:12;;;;;;;14.40;12.95;;;;;;;24.41;73.87;100175.89;1752372;80;21502;-79
2021/07/19 04:16:40;;;;;;;16.00;13.65;;;;;;;24.47;73.42;100179.66;1752737;81;20857;-77
2021/07/19 04:19:07;;;;;;;16.80;14.13;;;;;;;24.54;73.15;100177.89;1752745;81;20861;-75
2021/07/19 04:21:35;;;;;;;16.73;14.75;;;;;;;24.63;72.90;100178.06;1733584;81;21126;-76
2021/07/19 04:24:02;;;;;;;14.07;12.60;;;;;;;24.79;72.42;100174.28;1752885;81;20952;-77
2021/07/19 04:26:31;;;;;;;13.30;11.90;;;;;;;25.06;71.78;100179.30;1752234;80;20956;-77
2021/07/19 04:29:04;;;;;;;13.32;12.07;;;;;;;25.45;71.21;100179.19;1752244;81;21449;-78
2021/07/19 04:31:32;;;;;;;12.73;11.57;;;;;;;25.93;70.08;100172.45;1752565;81;20924;-77
2021/07/19 04:34:02;;;;;;;15.03;12.40;;;;;;;26.47;68.40;100172.80;1752567;81;21531;-76
2021/07/19 04:36:33;;;;;;;18.15;12.40;;;;;;;26.98;66.89;100179.92;1751437;80;20904;-76
2021/07/19 04:39:01;;;;;;;13.43;12.00;;;;;;;27.52;65.44;100174.67;1752810;82;21410;-75
2021/07/19 04:41:31;;;;;;;12.90;11.30;;;;;;;28.03;64.21;100171.63;1733393;81;21054;-75
2021/07/19 04:43:58;;;;;;;15.30;11.63;;;;;;;28.49;62.61;100165.08;1752134;81;20880;-73
2021/07/19 04:46:25;;;;;;;14.55;11.43;;;;;;;28.90;61.36;100165.83;1752512;81;21112;-76
2021/07/19 04:48:52;;;;;;;13.55;10.82;;;;;;;29.26;60.21;100169.61;1749683;80;20921;-77
2021/07/19 04:51:19;;;;;;;15.78;12.18;;;;;;;29.63;58.88;100171.42;1744765;81;21529;-78
2021/07/19 04:53:46;;;;;;;13.08;11.43;;;;;;;29.98;57.60;100166.70;1744827;81;20933;-77
2021/07/19 04:56:13;;;;;;;14.15;11.90;;;;;;;30.27;56.47;100170.41;1744686;81;20842;-77
2021/07/19 04:58:41;;;;;;;12.95;11.57;;;;;;;30.49;55.69;100162.05;1744695;81;21398;-77
2021/07/19 05:01:07;;;;;;;13.53;12.13;;;;;;;30.76;54.82;100168.34;1744651;81;20881;-78
2021/07/19 05:03:43;;;;;;;15.18;11.73;;;;;;;31.05;54.20;100165.75;1744864;81;20936;-77
2021/07/19 05:06:12;;;;;;;17.67;11.30;;;;;;;31.31;53.21;100165.21;1744674;81;20956;-76
2021/07/19 05:08:39;;;;;;;11.97;11.00;;;;;;;31.56;52.64;100163.55;1744687;81;20972;-77
2021/07/19 05:11:08;;;;;;;16.62;10.40;;;;;;;31.81;51.87;100164.55;1744520;82;21758;-77
2021/07/19 05:13:37;;;;;;;10.70;9.73;;;;;;;32.07;50.94;100158.26;1744608;81;20936;-77
2021/07/19 05:16:04;;;;;;;11.90;10.58;;;;;;;32.33;50.52;100161.41;1744570;81;20920;-77
2021/07/19 05:18:32;;;;;;;12.25;11.35;;;;;;;32.58;50.05;100159.64;1744588;81;20941;-77
2021/07/19 05:20:59;;;;;;;11.70;10.50;;;;;;;32.78;49.46;100164.54;1744756;82;20925;-77
2021/07/19 05:23:28;;;;;;;12.60;10.55;;;;;;;33.02;48.70;100164.59;1744553;81;22169;-80
2021/07/19 05:25:57;;;;;;;10.82;9.70;;;;;;;33.23;47.72;100160.80;1744429;81;21347;-78
2021/07/19 05:28:24;;;;;;;12.23;10.58;;;;;;;33.42;47.01;100157.22;1744035;81;20924;-77
2021/07/19 05:30:53;;;;;;;10.88;9.78;;;;;;;33.59;47.15;100163.40;1744616;81;20905;-77
2021/07/19 05:33:22;;;;;;;11.08;10.03;;;;;;;33.76;46.63;100159.77;1744572;81;20917;-78
2021/07/19 05:35:52;;;;;;;10.85;9.90;;;;;;;33.98;46.44;100161.88;1744465;81;20981;-76
2021/07/19 05:38:23;;;;;;;10.98;10.05;;;;;;;34.19;46.26;100156.64;1744367;81;20953;-77
2021/07/19 05:40:50;;;;;;;15.40;10.65;;;;;;;34.30;45.94;100158.36;1744470;81;20987;-77
2021/07/19 05:43:23;;;;;;;11.20;10.30;;;;;;;34.51;45.64;100160.70;1744492;81;20940;-78
2021/07/19 05:45:50;;;;;;;11.60;10.50;;;;;;;34.73;44.94;100160.59;1744572;82;20975;-78
2021/07/19 05:48:18;;;;;;;13.43;10.03;;;;;;;34.95;44.10;100160.95;1744593;81;21504;-77
2021/07/19 05:50:48;;;;;;;10.20;9.18;;;;;;;35.17;43.32;100152.63;1757501;80;20923;-77
2021/07/19 05:53:15;;;;;;;11.80;10.28;;;;;;;35.34;42.80;100157.88;1757800;81;21375;-78
2021/07/19 05:55:48;;;;;;;14.80;9.28;;;;;;;35.56;42.66;100159.84;1757597;80;20924;-76
2021/07/19 05:58:16;;;;;;;11.00;9.80;;;;;;;35.77;42.41;100159.91;1757993;81;20877;-77
2021/07/19 06:00:43;;;;;;;10.43;9.35;;;;;;;35.88;42.00;100158.82;1757955;80;22172;-78
2021/07/19 06:03:11;;;;;;;12.95;9.68;;;;;;;35.98;41.67;100149.29;1757999;81;20943;-78
2021/07/19 06:05:38;;;;;;;14.30;10.55;;;;;;;36.07;41.76;100157.75;1757790;81;20865;-77
2021/07/19 06:08:06;;;;;;;11.43;9.58;;;;;;;36.21;42.10;100154.77;1741201;81;20904;-77
2021/07/19 06:10:33;;;;;;;13.03;10.50;;;;;;;36.41;41.42;100151.19;1757868;81;20955;-77
2021/07/19 06:13:00;;;;;;;12.45;9.83;;;;;;;36.61;40.59;100157.75;1757913;81;21964;-77
2021/07/19 06:15:26;;;;;;;13.90;10.75;;;;;;;36.80;40.09;100157.95;1757805;81;20881;-77
2021/07/19 06:17:54;;;;;;;19.15;12.07;;;;;;;36.99;39.78;100157.62;1758276;81;21499;-77
2021/07/19 06:20:28;;;;;;;16.52;11.63;;;;;;;37.19;39.45;100153.20;1757727;81;20936;-77
2021/07/19 06:22:54;;;;;;;18.70;11.15;;;;;;;37.37;39.00;100156.64;1757996;81;20964;-75
2021/07/19 06:25:21;;;;;;;17.37;12.33;;;;;;;37.54;39.07;100149.45;1757910;80;21111;-75
2021/07/19 06:27:47;;;;;;;21.17;12.93;;;;;;;37.68;38.71;100152.39;1758048;81;21592;-77
2021/07/19 06:30:14;;;;;;;15.08;12.43;;;;;;;37.76;38.42;100155.89;1757770;80;20876;-77
2021/07/19 06:32:41;;;;;;;14.10;11.95;;;;;;;37.85;38.36;100153.38;1758114;80;20971;-77
2021/07/19 06:35:10;;;;;;;15.20;12.95;;;;;;;37.99;38.03;100157.08;1757803;81;20920;-79
2021/07/19 06:37:36;;;;;;;19.57;12.85;;;;;;;38.15;37.52;100153.16;1758117;81;21131;-76
2021/07/19 06:40:05;;;;;;;18.40;13.08;;;;;;;38.25;37.36;100155.53;1757792;81;21429;-78
2021/07/19 06:42:33;;;;;;;16.23;12.40;;;;;;;38.24;38.17;100151.14;1758039;80;20893;-75
2021/07/19 06:45:00;;;;;;;18.05;13.60;;;;;;;38.29;37.70;100148.38;1757800;81;21138;-76
2021/07/19 06:47:29;;;;;;;14.85;11.68;;;;;;;38.33;37.21;100146.13;1758143;80;20888;-76
2021/07/19 06:49:58;;;;;;;14.18;11.83;;;;;;;38.43;37.03;100151.24;1758120;81;21387;-75
2021/07/19 06:52:25;;;;;;;17.57;12.35;;;;;;;38.61;36.85;100142.86;1757735;80;20919;-76
2021/07/19 06:54:52;;;;;;;16.62;11.88;;;;;;;38.74;37.07;100144.91;1757895;80;20892;-79
2021/07/19 06:57:22;;;;;;;16.55;12.37;;;;;;;38.83;36.69;100147.82;1757725;81;21046;-76
2021/07/19 06:59:49;;;;;;;14.28;11.53;;;;;;;38.87;36.73;100153.80;1757967;81;21468;-81
2021/07/19 07:02:16;;;;;;;15.25;11.97;;;;;;;38.96;36.64;100149.32;1757924;81;21270;-79
2021/07/19 07:04:44;;;;;;;13.38;12.05;;;;;;;39.10;36.50;100148.60;1757929;81;20869;-76
2021/07/19 07:07:11;;;;;;;15.15;12.28;;;;;;;39.21;36.50;100143.80;1757976;81;20920;-78
2021/07/19 07:09:38;;;;;;;14.33;11.18;;;;;;;39.26;36.13;100143.72;1757879;80;20928;-76
2021/07/19 07:12:06;;;;;;;15.45;13.30;;;;;;;39.33;36.16;100151.02;1757836;80;20871;-75
2021/07/19 07:14:33;;;;;;;13.48;11.35;;;;;;;39.40;35.50;100143.83;1757932;81;21016;-74
2021/07/19 07:17:01;;;;;;;13.25;11.95;;;;;;;39.37;36.25;100142.47;1757662;80;20951;-74
2021/07/19 07:19:28;;;;;;;14.93;13.28;;;;;;;39.42;36.17;100144.34;1758126;80;21323;-75
2021/07/19 07:21:55;;;;;;;16.87;14.30;;;;;;;39.51;35.61;100146.15;1757741;80;20932;-76
2021/07/19 07:24:22;;;;;;;23.07;14.83;;;;;;;39.64;34.95;100138.26;1758133;81;21464;-76
2021/07/19 07:26:49;;;;;;;17.20;15.43;;;;;;;39.74;35.11;100133.99;1758567;80;21774;-76
2021/07/19 07:29:15;;;;;;;16.95;15.15;;;;;;;39.77;34.24;100133.38;1757992;81;20884;-76
2021/07/19 07:31:42;;;;;;;17.80;14.00;;;;;;;39.72;34.73;100137.59;1758001;81;20971;-78
2021/07/19 07:34:10;;;;;;;16.67;13.75;;;;;;;39.81;34.66;100138.53;1758198;80;20967;-78
2021/07/19 07:36:38;;;;;;;18.45;14.28;;;;;;;39.91;34.18;100133.45;1758225;80;20833;-78
2021/07/19 07:39:05;;;;;;;19.77;15.68;;;;;;;40.03;34.00;100137.12;1758374;81;21135;-76
2021/07/19 07:41:32;;;;;;;19.92;15.83;;;;;;;40.06;33.82;100142.81;1757880;81;20936;-75
2021/07/19 07:43:59;;;;;;;19.82;13.58;;;;;;;40.10;34.01;100142.47;1757906;81;21441;-77
2021/07/19 07:46:26;;;;;;;20.05;14.65;;;;;;;40.22;33.70;100139.80;1758097;81;20892;-78
2021/07/19 07:48:53;;;;;;;15.43;13.68;;;;;;;40.31;33.61;100133.88;1758316;81;20979;-76
2021/07/19 07:51:21;;;;;;;22.50;15.68;;;;;;;40.37;33.84;100130.73;1745157;81;21129;-78
2021/07/19 07:53:49;;;;;;;21.42;14.60;;;;;;;40.42;33.37;100131.20;1744737;81;21125;-76
2021/07/19 07:56:16;;;;;;;29.48;15.88;;;;;;;40.50;33.16;100128.31;1744652;81;20889;-75
2021/07/19 07:58:43;;;;;;;29.25;14.38;;;;;;;40.53;33.21;100130.45;1744821;80;21000;-76
2021/07/19 08:01:09;;;;;;;39.73;16.52;;;;;;;40.52;32.72;100132.38;1744627;81;21079;-77
2021/07/19 08:03:40;;;;;;;25.80;14.68;;;;;;;40.49;33.01;100126.13;1744668;81;21535;-78
2021/07/19 08:06:08;;;;;;;22.60;14.03;;;;;;;40.57;33.07;100124.59;1743008;81;21327;-77
2021/07/19 08:08:35;;;;;;;20.55;14.90;;;;;;;40.65;32.65;100124.46;1745057;82;20920;-77
2021/07/19 08:11:04;;;;;;;27.13;14.63;;;;;;;40.63;32.88;100122.01;1744671;80;20937;-75
2021/07/19 08:13:31;;;;;;;19.95;13.62;;;;;;;40.57;32.92;100121.28;1744865;81;20992;-76
2021/07/19 08:15:59;;;;;;;19.55;12.75;;;;;;;40.52;32.55;100118.64;1744636;81;21116;-76
2021/07/19 08:18:26;;;;;;;14.87;13.13;;;;;;;40.49;32.75;100117.05;1744506;82;20834;-78
2021/07/19 08:20:53;;;;;;;16.82;12.70;;;;;;;40.59;32.79;100118.23;1744617;81;20980;-81
2021/07/19 08:23:20;;;;;;;16.62;12.80;;;;;;;40.72;32.53;100116.07;1744738;81;20901;-77
2021/07/19 08:25:47;;;;;;;15.53;13.93;;;;;;;40.84;32.51;100112.80;1744722;81;20908;-78
2021/07/19 08:28:14;;;;;;;17.48;13.45;;;;;;;40.89;32.97;100111.87;1744839;81;21478;-79
2021/07/19 08:30:41;;;;;;;14.85;13.22;;;;;;;40.97;33.11;100109.78;1744516;81;20932;-78
2021/07/19 08:33:10;;;;;;;14.73;12.95;;;;;;;41.05;33.23;100105.50;1744651;81;20874;-78
2021/07/19 08:35:37;;;;;;;14.70;13.30;;;;;;;41.04;32.80;100107.41;1744855;81;21007;-79
2021/07/19 08:38:04;;;;;;;13.80;12.50;;;;;;;41.19;32.69;100107.11;1744876;80;20877;-79
2021/07/19 08:40:31;;;;;;;14.55;12.93;;;;;;;41.39;32.26;100107.20;1744571;81;21081;-79
2021/07/19 08:42:59;;;;;;;14.47;12.70;;;;;;;41.52;31.77;100102.77;1744900;82;21363;-78
2021/07/19 08:45:25;;;;;;;16.42;12.55;;;;;;;41.58;31.96;100102.94;1744934;81;20869;-78
2021/07/19 08:47:52;;;;;;;13.85;12.43;;;;;;;41.69;32.07;100099.37;1744630;81;20894;-78
2021/07/19 08:50:21;;;;;;;16.87;12.70;;;;;;;41.85;32.15;100098.98;1744443;80;20976;-80
2021/07/19 08:52:50;;;;;;;14.03;12.78;;;;;;;41.88;31.17;100096.97;1744644;81;21080;-80
2021/07/19 08:55:18;;;;;;;15.75;12.40;;;;;;;41.93;31.05;100089.36;1744763;81;21418;-77
2021/07/19 08:57:49;;;;;;;12.98;11.78;;;;;;;41.93;30.36;100092.13;1744546;81;20893;-76
2021/07/19 09:00:15;;;;;;;13.50;12.07;;;;;;;41.98;29.96;100088.48;1743476;81;20912;-80
2021/07/19 09:02:42;;;;;;;14.13;12.63;;;;;;;41.89;29.73;100084.80;1744338;81;20878;-78
2021/07/19 09:05:10;;;;;;;13.13;11.78;;;;;;;41.87;30.04;100083.77;1744891;81;21157;-76
2021/07/19 09:07:38;;;;;;;18.30;12.03;;;;;;;41.96;29.77;100078.30;1744529;80;20979;-76
2021/07/19 09:10:06;;;;;;;13.13;10.90;;;;;;;42.07;29.82;100085.73;1744578;82;20921;-77
2021/07/19 09:12:38;;;;;;;12.65;11.40;;;;;;;42.14;29.62;100080.04;1744439;81;20980;-79
2021/07/19 09:15:09;;;;;;;13.05;11.43;;;;;;;42.22;29.93;100082.57;1744587;81;20885;-77
2021/07/19 09:17:35;;;;;;;12.82;11.50;;;;;;;42.25;29.44;100084.70;1744529;81;21129;-78
2021/07/19 09:20:07;;;;;;;10.90;9.80;;;;;;;42.29;29.03;100086.24;1744506;80;20893;-77
2021/07/19 09:22:34;;;;;;;11.68;10.60;;;;;;;42.31;29.40;100079.84;1744692;81;20938;-78
2021/07/19 09:25:13;;;;;;;12.65;10.15;;;;;;;42.38;28.99;100078.27;1744457;82;21465;-78
2021/07/19 09:28:04;;;;;;;11.40;10.50;;;;;;;42.42;28.66;100083.97;1744757;81;20983;-77
2021/07/19 09:30:35;;;;;;;12.23;11.10;;;;;;;42.41;28.84;100079.03;1744688;81;21885;-78
2021/07/19 09:33:13;;;;;;;10.38;9.48;;;;;;;42.31;28.38;100077.90;1744444;81;20960;-76
2021/07/19 09:35:46;;;;;;;12.25;11.10;;;;;;;42.28;29.15;100083.25;1744541;81;20996;-77
2021/07/19 09:38:15;;;;;;;11.22;10.13;;;;;;;42.30;29.26;100072.16;1744459;81;20928;-76
2021/07/19 09:40:44;;;;;;;11.33;10.28;;;;;;;42.37;29.36;100078.01;1744443;81;20933;-79
2021/07/19 09:43:26;;;;;;;11.55;10.03;;;;;;;42.43;28.77;100074.59;1744524;82;21144;-79
2021/07/19 09:46:03;;;;;;;11.80;10.63;;;;;;;42.52;28.06;100070.48;1744647;80;20964;-77
2021/07/19 09:48:30;;;;;;;10.68;9.78;;;;;;;42.52;28.56;100075.99;1744555;81;21504;-77
2021/07/19 09:50:57;;;;;;;11.12;9.88;;;;;;;42.53;27.74;100081.17;1744392;81;21402;-81
2021/07/19 09:53:39;;;;;;;11.43;10.35;;;;;;;42.57;28.33;100074.45;1744465;82;20921;-81
2021/07/19 09:56:22;;;;;;;13.55;10.05;;;;;;;42.59;28.78;100079.09;1744723;81;21131;-79
2021/07/19 09:58:51;;;;;;;10.75;9.65;;;;;;;42.60;28.66;100069.12;1744470;81;20960;-80
2021/07/19 10:01:30;;;;;;;11.35;10.08;;;;;;;42.67;27.83;100070.03;1744702;81;20889;-82
2021/07/19 10:04:11;;;;;;;10.25;9.45;;;;;;;42.63;28.19;100072.61;1744415;81;20909;-85
2021/07/19 10:06:42;;;;;;;10.45;9.50;;;;;;;42.63;27.76;100058.82;1744695;81;20881;-83
2021/07/19 10:09:11;;;;;;;;;;;;;;;42.53;28.28;100067.38;1747111;81;21168;-82
2021/07/19 10:11:41;;;;;;;10.85;9.85;;;;;;;42.46;27.82;100063.48;1744539;81;20081;-83
2021/07/19 10:14:08;;;;;;;12.37;9.90;;;;;;;42.43;28.02;100063.56;1744815;80;20881;-84
2021/07/19 10:16:39;;;;;;;11.10;9.20;;;;;;;42.40;28.10;100057.29;1745613;81;20925;-86
2021/07/19 10:19:06;;;;;;;9.08;8.23;;;;;;;42.41;28.09;100058.36;1744895;81;20936;-83
2021/07/19 10:21:35;;;;;;;12.05;8.43;;;;;;;42.37;27.67;100060.66;1744453;81;21161;-83
2021/07/19 10:24:07;;;;;;;9.43;8.63;;;;;;;42.43;27.35;100058.85;1744575;81;20909;-82
2021/07/19 10:26:35;;;;;;;9.33;8.48;;;;;;;42.52;27.03;100064.39;1744857;81;20932;-85
2021/07/19 10:29:05;;;;;;;13.28;8.58;;;;;;;42.60;26.73;100058.64;1745751;81;20937;-88
2021/07/19 10:31:33;;;;;;;11.90;9.00;;;;;;;42.63;26.59;100058.02;1744835;81;20972;-85
2021/07/19 10:34:01;;;;;;;10.95;8.08;;;;;;;42.58;26.55;100061.73;1744900;81;21103;-81
2021/07/19 10:36:42;;;;;;;10.82;8.78;;;;;;;42.55;26.53;100054.09;1744498;81;20929;-79
2021/07/19 10:39:31;;;;;;;8.83;8.10;;;;;;;42.54;26.88;100056.61;1734652;82;20953;-83
2021/07/19 10:42:07;;;;;;;8.30;7.37;;;;;;;42.51;26.85;100055.05;1744543;80;20944;-83
2021/07/19 10:44:36;;;;;;;7.78;7.08;;;;;;;42.50;26.91;100052.06;1743944;81;20953;-85
2021/07/19 10:47:22;;;;;;;7.85;7.05;;;;;;;42.50;26.28;100052.87;1744615;81;21132;-81
2021/07/19 10:50:00;;;;;;;8.20;7.40;;;;;;;42.42;26.34;100050.89;1744604;81;20877;-80
2021/07/19 10:52:39;;;;;;;8.15;7.33;;;;;;;42.44;26.34;100050.01;1744493;81;20921;-81
2021/07/19 10:55:08;;;;;;;7.55;6.62;;;;;;;42.47;26.47;100045.79;1744331;81;20909;-82
2021/07/19 10:57:41;;;;;;;7.30;6.80;;;;;;;42.47;26.42;100045.79;1744441;81;20892;-83
2021/07/19 11:00:15;;;;;;;7.30;6.67;;;;;;;42.41;26.18;100036.30;1744366;81;20972;-80
2021/07/19 11:02:42;;;;;;;7.35;6.75;;;;;;;42.35;26.39;100041.67;1744481;81;21398;-82
2021/07/19 11:05:11;;;;;;;13.55;7.85;;;;;;;42.31;26.45;100035.17;1744686;81;20924;-82
2021/07/19 11:07:43;;;;;;;8.13;7.45;;;;;;;42.29;26.20;100032.49;1744564;81;20932;-81
2021/07/19 11:10:22;;;;;;;8.10;7.30;;;;;;;42.13;26.13;100029.36;1744589;81;21427;-80
2021/07/19 11:12:57;;;;;;;9.18;8.25;;;;;;;41.96;26.21;100024.58;1744810;81;21132;-83
2021/07/19 11:15:41;;;;;;;7.87;7.17;;;;;;;41.92;27.04;100022.20;1744723;81;20936;-83
2021/07/19 11:18:19;;;;;;;7.67;7.08;;;;;;;41.86;26.55;100018.77;1744853;80;20857;-84
2021/07/19 11:20:47;;;;;;;8.05;7.28;;;;;;;41.76;26.79;100017.11;1744888;81;20961;-82
2021/07/19 11:23:14;;;;;;;8.45;7.17;;;;;;;41.62;27.31;100015.83;1745089;81;20928;-83
2021/07/19 11:25:46;;;;;;;8.60;7.78;;;;;;;41.50;27.41;100013.36;1745698;81;21099;-82
2021/07/19 11:28:17;;;;;;;13.03;9.03;;;;;;;41.33;26.94;100010.72;1746681;81;28609;-82